Latest Weather Observations for Ivanhoe Airport

IDN60801

Issued at 9:35 am EDT Sunday 26 October 2014 (issued every 30 minutes, with the page automatically refreshed every 10 minutes)

About weather observations | Map of weather stations | Latest weather observations for NSW | Other Formats
Station Details ID: 049000 Name: IVANHOE AERODROME AWS Lat: -32.88 Lon: 144.31 Height: 100.0 m
Data from the previous 72 hours. | See also: Recent months at Ivanhoe Airport
Date/Time
EDT
Temp
°C
App
Temp
°C
Dew
Point
Rel
Hum
%
Delta-T
°C
Wind Press
QNH
hPa
Press
MSL
hPa
Rain
since 9 am
mm
Dir
 
Spd
km/h
Gust
km/h
Spd
kts
Gust
kts
26/09:30am 26.4 23.7 5.4 26 10.8 S 9 13 5 7 1013.2 1013.0 0.0
26/09:00am 24.6 21.1 5.4 29 9.8 SSW 13 15 7 8 1013.6 1013.4 0.0
26/08:30am 23.3 19.4 5.2 31 9.1 SW 15 20 8 11 1013.7 1013.5 0.0
26/08:00am 22.1 19.6 4.6 32 8.6 SW 7 11 4 6 1013.3 1013.1 0.0
26/07:30am 20.5 18.1 4.1 34 7.9 WSW 6 7 3 4 1012.9 1012.7 0.0
26/07:00am 17.3 15.8 2.9 38 6.6 CALM 0 0 0 0 1012.6 1012.4 0.0
26/06:30am 16.9 15.3 2.5 38 6.6 CALM 0 4 0 2 1012.1 1011.9 0.0
26/06:00am 18.5 16.0 3.9 38 6.9 SW 6 6 3 3 1011.5 1011.3 0.0
26/05:30am 19.0 16.2 3.2 35 7.4 SW 7 9 4 5 1011.7 1011.5 0.0
26/05:00am 19.4 15.8 3.2 34 7.6 SW 11 15 6 8 1011.8 1011.6 0.0
26/04:30am 19.7 16.0 2.6 32 8.0 SW 11 13 6 7 1011.7 1011.5 0.0
26/04:00am 20.7 16.7 3.0 31 8.4 SSW 13 15 7 8 1011.4 1011.1 0.0
26/03:30am 21.3 16.9 2.6 29 8.8 SSW 15 17 8 9 1011.4 1011.1 0.0
26/03:00am 22.1 18.0 2.2 27 9.4 SSW 13 17 7 9 1011.6 1011.4 0.0
26/02:30am 22.3 18.5 1.9 26 9.6 SW 11 13 6 7 1011.7 1011.5 0.0
26/02:00am 22.6 19.2 1.6 25 9.8 WSW 9 11 5 6 1011.9 1011.7 0.0
26/01:30am 23.5 19.6 1.2 23 10.4 SW 11 13 6 7 1012.3 1012.1 0.0
26/01:00am 24.5 20.5 0.8 21 11.1 SW 11 15 6 8 1012.5 1012.3 0.0
26/12:30am 26.4 21.7 0.9 19 12.1 SW 15 22 8 12 1012.6 1012.4 0.0
26/12:00am 27.4 22.0 1.0 18 12.7 SW 19 26 10 14 1012.5 1012.3 0.0
 
Date/Time
EDT
Temp
°C
App
Temp
°C
Dew
Point
Rel
Hum
%
Delta-T
°C
Wind Press
QNH
hPa
Press
MSL
hPa
Rain
since 9 am
mm
Dir
 
Spd
km/h
Gust
km/h
Spd
kts
Gust
kts
25/11:30pm 27.7 22.6 0.5 17 12.9 SW 17 24 9 13 1012.5 1012.3 0.0
25/11:00pm 28.6 23.1 0.3 16 13.5 SW 19 24 10 13 1012.6 1012.4 0.0
25/10:30pm 29.4 23.8 0.1 15 14.0 SW 19 28 10 15 1012.7 1012.5 0.0
25/10:00pm 30.4 24.5 -1.1 13 14.9 SW 20 30 11 16 1012.7 1012.5 0.0
25/09:30pm 31.3 25.6 -0.4 13 15.2 WSW 19 26 10 14 1012.6 1012.4 0.0
25/09:00pm 32.3 25.7 -0.7 12 15.9 WSW 24 37 13 20 1012.2 1012.0 0.0
25/08:30pm 33.2 26.7 0.0 12 16.3 WSW 24 41 13 22 1011.7 1011.5 0.0
25/08:00pm 34.2 28.2 0.8 12 16.7 WSW 22 32 12 17 1011.0 1010.7 0.0
25/07:30pm 35.1 27.6 1.5 12 17.1 W 30 43 16 23 1010.5 1010.2 0.0
25/07:11pm 35.8 28.6 0.8 11 17.7 WSW 28 50 15 27 1010.1 1009.8 0.0
25/07:00pm 36.2 29.1 1.1 11 17.9 WSW 28 43 15 23 1010.1 1009.8 0.0
25/06:30pm 37.1 29.9 3.0 12 18.0 WSW 30 44 16 24 1009.8 1009.5 0.0
25/06:00pm 37.7 30.8 4.6 13 17.9 W 30 46 16 25 1009.6 1009.3 0.0
25/05:30pm 38.2 31.5 3.8 12 18.4 W 28 41 15 22 1009.4 1009.1 0.0
25/05:09pm 39.0 31.5 3.2 11 19.1 W 32 50 17 27 1009.3 1009.0 0.0
25/05:00pm 38.5 30.3 2.8 11 18.9 W 35 50 19 27 1009.3 1009.0 0.0
25/04:58pm 39.0 31.3 3.2 11 19.1 W 33 52 18 28 1009.2 1008.9 0.0
25/04:53pm 38.8 30.3 3.1 11 19.0 WSW 37 52 20 28 1009.3 1009.0 0.0
25/04:30pm 40.0 31.8 2.6 10 19.9 WNW 35 48 19 26 1009.1 1008.8 0.0
25/04:00pm 39.1 30.8 1.9 10 19.5 W 35 56 19 30 1009.2 1008.9 0.0
25/03:56pm 39.8 32.1 2.5 10 19.8 W 32 52 17 28 1009.1 1008.8 0.0
25/03:30pm 40.2 32.3 1.3 9 20.3 WNW 32 41 17 22 1009.5 1009.2 0.0
25/03:11pm 40.7 32.3 1.7 9 20.5 W 35 54 19 29 1009.7 1009.4 0.0
25/03:00pm 40.2 31.8 1.3 9 20.3 WNW 35 50 19 27 1009.7 1009.4 0.0
25/02:53pm 40.3 33.2 1.4 9 20.3 W 28 48 15 26 1009.9 1009.6 0.0
25/02:42pm 39.1 30.0 1.9 10 19.5 W 39 46 21 25 1010.2 1009.9 0.0
25/02:30pm 39.1 31.3 1.9 10 19.5 WNW 32 50 17 27 1010.2 1009.9 0.0
25/02:08pm 40.7 32.7 1.7 9 20.5 W 33 52 18 28 1010.4 1010.1 0.0
25/02:05pm 40.3 31.5 1.4 9 20.3 W 37 52 20 28 1010.4 1010.1 0.0
25/02:00pm 39.3 32.7 2.1 10 19.6 NW 26 41 14 22 1010.5 1010.2 0.0
25/01:34pm 40.2 33.1 1.3 9 20.3 NW 28 46 15 25 1010.9 1010.6 0.0
25/01:30pm 39.0 33.1 1.9 10 19.4 WNW 22 33 12 18 1010.9 1010.6 0.0
25/01:00pm 39.5 33.1 0.8 9 20.0 WNW 24 43 13 23 1011.3 1011.0 0.0
25/12:30pm 39.3 33.8 0.6 9 19.9 WNW 19 22 10 12 1012.1 1011.9 0.0
25/12:00pm 38.0 32.4 1.1 10 19.0 NNW 20 35 11 19 1012.6 1012.4 0.0
25/11:30am 38.1 32.3 2.5 11 18.7 NNW 22 33 12 18 1013.1 1012.9 0.0
25/11:00am 36.9 30.2 1.6 11 18.2 N 26 37 14 20 1013.4 1013.2 0.0
25/10:30am 35.8 29.2 2.0 12 17.4 N 26 35 14 19 1013.7 1013.5 0.0
25/10:00am 34.2 28.2 0.8 12 16.7 N 22 35 12 19 1013.8 1013.6 0.0
25/09:30am 32.5 27.0 1.6 14 15.5 N 20 32 11 17 1014.1 1013.9 0.0
25/09:00am 30.4 24.9 1.8 16 14.2 NNE 20 28 11 15 1014.1 1013.9 0.0
25/08:30am 28.5 22.9 1.1 17 13.3 NNE 20 26 11 14 1014.1 1013.9 0.0
25/08:00am 26.6 21.7 1.8 20 12.0 NE 17 24 9 13 1014.0 1013.8 0.0
25/07:30am 24.2 19.6 1.8 23 10.6 NE 15 20 8 11 1013.8 1013.6 0.0
25/07:00am 22.2 17.6 1.8 26 9.5 ENE 15 17 8 9 1013.6 1013.4 0.0
25/06:30am 20.6 15.9 1.0 27 8.9 ENE 15 15 8 8 1013.2 1013.0 0.0
25/06:00am 22.3 18.0 1.3 25 9.7 ENE 13 15 7 8 1013.1 1012.9 0.0
25/05:30am 21.6 17.3 1.3 26 9.4 NNE 13 13 7 7 1012.9 1012.7 0.0
25/05:00am 22.9 18.3 1.8 25 9.9 NNE 15 19 8 10 1012.7 1012.5 0.0
25/04:30am 23.0 18.0 1.4 24 10.1 NNE 17 19 9 10 1012.7 1012.5 0.0
25/04:00am 22.5 17.9 1.5 25 9.8 NNE 15 17 8 9 1012.8 1012.6 0.0
25/03:30am 22.2 18.0 1.8 26 9.5 NNE 13 15 7 8 1013.0 1012.8 0.0
25/03:00am 22.6 18.8 1.6 25 9.8 NNE 11 13 6 7 1013.3 1013.1 0.0
25/02:30am 24.0 19.8 1.6 23 10.6 NE 13 17 7 9 1013.4 1013.2 0.0
25/02:00am 23.8 19.6 1.4 23 10.5 ENE 13 15 7 8 1013.7 1013.5 0.0
25/01:30am 24.7 20.6 2.2 23 10.8 ENE 13 15 7 8 1013.9 1013.7 0.0
25/01:00am 24.7 20.6 2.2 23 10.8 E 13 15 7 8 1014.3 1014.1 0.0
25/12:30am 25.5 21.8 2.2 22 11.3 E 11 13 6 7 1014.4 1014.2 0.0
25/12:00am 26.2 22.6 2.8 22 11.5 E 11 13 6 7 1014.5 1014.3 0.0
 
Date/Time
EDT
Temp
°C
App
Temp
°C
Dew
Point
Rel
Hum
%
Delta-T
°C
Wind Press
QNH
hPa
Press
MSL
hPa
Rain
since 9 am
mm
Dir
 
Spd
km/h
Gust
km/h
Spd
kts
Gust
kts
24/11:30pm 26.0 22.6 2.0 21 11.6 ESE 9 11 5 6 1014.6 1014.4 0.0
24/11:00pm 26.5 23.2 2.4 21 11.8 S 9 9 5 5 1014.7 1014.5 0.0
24/10:30pm 27.0 24.2 2.1 20 12.1 SSW 6 7 3 4 1014.6 1014.4 0.0
24/10:00pm 27.5 24.7 1.8 19 12.5 SSW 6 7 3 4 1014.4 1014.2 0.0
24/09:30pm 28.6 25.7 1.2 17 13.3 SSW 6 7 3 4 1014.4 1014.2 0.0
24/09:00pm 29.3 25.4 0.9 16 13.8 SSW 11 13 6 7 1014.1 1013.9 0.0
24/08:30pm 29.9 26.3 0.5 15 14.2 NW 9 9 5 5 1013.7 1013.5 0.0
24/08:00pm 31.4 28.2 0.7 14 15.0 W 7 9 4 5 1013.4 1013.2 0.0
24/07:30pm 33.2 29.5 0.0 12 16.3 W 9 11 5 6 1013.0 1012.8 0.0
24/07:00pm 34.1 29.2 -0.5 11 16.9 WSW 15 24 8 13 1012.7 1012.5 0.0
24/06:30pm 34.7 29.1 -0.1 11 17.2 W 19 30 10 16 1012.5 1012.3 0.0
24/06:00pm 35.2 29.5 -1.0 10 17.7 WSW 19 28 10 15 1012.3 1012.1 0.0
24/05:30pm 35.4 29.7 -0.8 10 17.8 W 19 32 10 17 1012.0 1011.8 0.0
24/05:00pm 36.2 30.2 -1.7 9 18.4 WSW 20 30 11 16 1011.9 1011.7 0.0
24/04:30pm 35.8 29.4 -2.0 9 18.2 WSW 22 35 12 19 1012.0 1011.8 0.0
24/04:00pm 36.4 29.4 -3.1 8 18.8 WSW 24 32 13 17 1012.0 1011.8 0.0
24/03:30pm 35.8 29.4 -2.0 9 18.2 WSW 22 32 12 17 1012.2 1012.0 0.0
24/03:00pm 36.1 30.5 1.0 11 17.8 WSW 20 28 11 15 1012.4 1012.2 0.0
24/02:30pm 35.7 29.3 3.0 13 17.1 W 26 41 14 22 1012.8 1012.6 0.0
24/02:00pm 34.1 28.0 4.7 16 15.6 W 26 35 14 19 1013.1 1012.9 0.0
24/01:30pm 34.8 28.8 5.3 16 15.9 W 26 39 14 21 1013.1 1012.9 0.0
24/01:00pm 34.2 28.3 5.7 17 15.4 W 26 41 14 22 1013.2 1013.0 0.0
24/12:30pm 34.9 29.1 4.4 15 16.2 W 24 35 13 19 1013.3 1013.1 0.0
24/12:00pm 35.1 29.9 5.5 16 16.0 W 22 35 12 19 1013.3 1013.1 0.0
24/11:30am 34.8 30.3 6.2 17 15.6 W 19 32 10 17 1013.4 1013.2 0.0
24/11:00am 33.0 30.8 6.3 19 14.5 W 7 13 4 7 1013.1 1012.9 0.0
24/10:30am 32.7 30.8 6.8 20 14.1 SSE 6 11 3 6 1013.2 1013.0 0.0
24/10:00am 30.8 27.3 7.3 23 12.8 WSW 15 20 8 11 1013.7 1013.5 0.0
24/09:30am 29.4 25.5 7.3 25 12.0 SW 17 24 9 13 1013.7 1013.5 0.0
24/09:00am 28.5 25.0 7.1 26 11.5 WSW 15 19 8 10 1013.5 1013.3 0.0
24/08:30am 26.5 23.2 6.5 28 10.5 SW 13 19 7 10 1013.4 1013.2 0.0
24/08:00am 25.0 21.7 6.2 30 9.7 WSW 13 19 7 10 1013.4 1013.2 0.0
24/07:30am 22.7 18.5 5.6 33 8.6 WSW 17 22 9 12 1013.3 1013.1 0.0
24/07:00am 21.2 17.2 5.1 35 8.0 WSW 15 17 8 9 1012.7 1012.5 0.0
24/06:30am 20.1 16.4 4.6 36 7.5 WSW 13 17 7 9 1012.2 1012.0 0.0
24/06:00am 19.8 17.4 4.3 36 7.5 WSW 6 11 3 6 1011.9 1011.7 0.0
24/05:30am 20.3 19.1 4.4 35 7.7 CALM 0 0 0 0 1011.8 1011.6 0.0
24/05:00am 20.5 17.6 4.5 35 7.8 W 9 9 5 5 1012.0 1011.8 0.0
24/04:30am 20.8 17.8 4.0 33 8.1 WNW 9 17 5 9 1012.1 1011.9 0.0
24/04:00am 21.4 18.0 4.0 32 8.5 NNE 11 13 6 7 1011.9 1011.7 0.0
24/03:30am 21.8 18.9 4.4 32 8.5 SSW 9 11 5 6 1011.8 1011.6 0.0
24/03:00am 22.7 20.9 5.2 32 8.8 SW 4 6 2 3 1012.1 1011.9 0.0
24/02:30am 24.1 21.8 5.0 29 9.6 SW 6 7 3 4 1012.5 1012.3 0.0
24/02:00am 24.3 21.9 5.1 29 9.7 SW 7 7 4 4 1012.5 1012.3 0.0
24/01:30am 24.2 21.8 5.1 29 9.6 SW 7 9 4 5 1012.7 1012.5 0.0
24/01:00am 25.2 22.8 4.3 26 10.5 SW 6 7 3 4 1012.7 1012.5 0.0
24/12:30am 26.5 23.6 4.9 25 11.0 SW 9 9 5 5 1012.8 1012.6 0.0
24/12:00am 27.5 25.1 5.1 24 11.6 SW 7 9 4 5 1012.8 1012.6 0.0
 
Date/Time
EDT
Temp
°C
App
Temp
°C
Dew
Point
Rel
Hum
%
Delta-T
°C
Wind Press
QNH
hPa
Press
MSL
hPa
Rain
since 9 am
mm
Dir
 
Spd
km/h
Gust
km/h
Spd
kts
Gust
kts
23/11:30pm 28.1 24.9 5.0 23 11.9 WSW 11 13 6 7 1012.9 1012.7 0.0
23/11:00pm 28.3 25.4 4.6 22 12.2 W 9 11 5 6 1012.8 1012.6 0.0
23/10:30pm 28.7 25.8 4.9 22 12.3 WSW 9 11 5 6 1012.5 1012.3 0.0
23/10:00pm 29.4 26.4 4.1 20 13.0 WSW 9 11 5 6 1012.3 1012.1 0.0
23/09:30pm 30.8 27.9 4.5 19 13.7 WSW 9 11 5 6 1012.0 1011.8 0.0
23/09:00pm 31.0 28.3 3.9 18 14.0 W 7 9 4 5 1011.8 1011.6 0.0
23/08:30pm 32.4 29.4 4.2 17 14.7 W 9 13 5 7 1011.4 1011.1 0.0
23/08:00pm 33.8 30.9 4.5 16 15.5 W 9 13 5 7 1011.1 1010.8 0.0
23/07:30pm 35.1 31.4 4.6 15 16.3 WSW 13 20 7 11 1010.8 1010.5 0.0
23/07:00pm 36.4 32.2 3.6 13 17.4 W 15 19 8 10 1010.7 1010.4 0.0
23/06:30pm 37.1 32.0 4.1 13 17.7 WNW 20 33 11 18 1010.6 1010.3 0.0
23/06:00pm 37.5 32.3 3.3 12 18.2 W 20 33 11 18 1010.6 1010.3 0.0
23/05:30pm 37.2 31.4 4.2 13 17.7 W 24 35 13 19 1010.6 1010.3 0.0
23/05:00pm 37.8 31.5 3.5 12 18.3 WNW 26 39 14 21 1010.8 1010.5 0.0
23/04:30pm 38.0 32.3 4.8 13 18.1 WNW 24 35 13 19 1011.1 1010.8 0.0
23/04:00pm 38.6 32.7 4.1 12 18.6 NNW 24 39 13 21 1011.3 1011.0 0.0
23/03:30pm 37.6 32.6 4.5 13 17.9 WNW 20 32 11 17 1011.6 1011.4 0.0
23/03:00pm 37.9 31.9 3.6 12 18.3 NW 24 48 13 26 1011.9 1011.7 0.0
23/02:30pm 37.3 30.7 4.3 13 17.7 NW 28 41 15 22 1012.4 1012.2 0.0
23/02:00pm 36.8 31.3 3.9 13 17.5 NNW 22 26 12 14 1012.8 1012.6 0.0
23/01:30pm 36.7 29.5 4.9 14 17.2 NW 32 41 17 22 1013.4 1013.2 0.0
23/01:00pm 36.7 30.8 5.9 15 16.9 WNW 26 35 14 19 1013.9 1013.7 0.0
23/12:30pm 35.6 30.7 6.8 17 16.0 NW 22 33 12 18 1014.3 1014.1 0.0
23/12:00pm 34.4 29.1 6.7 18 15.2 WNW 24 37 13 20 1014.8 1014.6 0.0
23/11:30am 33.8 29.3 7.0 19 14.8 NW 20 32 11 17 1015.2 1015.0 0.0
23/11:00am 33.1 28.6 7.1 20 14.3 WNW 20 30 11 16 1015.3 1015.1 0.0
23/10:30am 31.6 26.8 7.3 22 13.3 NW 22 35 12 19 1015.6 1015.4 0.0
23/10:00am 30.2 25.6 8.0 25 12.2 NNW 22 33 12 18 1015.6 1015.4 0.0

Other Formats:

Comma delimited format used in spreadsheet applications
http://www.bom.gov.au/fwo/IDN60801/IDN60801.95697.axf

JavaScript Object Notation format (JSON) in row-major order
http://www.bom.gov.au/fwo/IDN60801/IDN60801.95697.json